createdAt,value
2019-01-06T00:00:07.929Z,6.66
2019-01-06T00:01:07.856Z,6.69
2019-01-06T00:02:07.848Z,6.70
2019-01-06T00:03:07.835Z,6.66
2019-01-06T00:04:07.824Z,6.67
2019-01-06T00:05:07.840Z,6.69
2019-01-06T00:06:07.799Z,6.69
2019-01-06T00:07:07.791Z,6.67
2019-01-06T00:08:07.782Z,6.62
2019-01-06T00:09:07.765Z,6.69
2019-01-06T00:10:07.787Z,6.62
2019-01-06T00:11:07.760Z,6.62
2019-01-06T00:12:07.735Z,6.70
2019-01-06T00:13:07.744Z,6.71
2019-01-06T00:14:07.770Z,6.73
2019-01-06T00:15:07.724Z,6.66
2019-01-06T00:16:07.688Z,6.69
2019-01-06T00:17:07.681Z,6.66
2019-01-06T00:18:07.666Z,6.71
2019-01-06T00:19:07.670Z,6.56
2019-01-06T00:20:07.670Z,6.64
2019-01-06T00:21:07.634Z,6.70
2019-01-06T00:22:07.620Z,6.62
2019-01-06T00:23:07.621Z,6.69
2019-01-06T00:24:07.606Z,6.67
2019-01-06T00:25:07.621Z,6.70
2019-01-06T00:26:07.575Z,6.73
2019-01-06T00:27:07.572Z,6.73
2019-01-06T00:28:07.560Z,6.69
2019-01-06T00:29:07.542Z,6.67
2019-01-06T00:30:07.550Z,6.67
2019-01-06T00:31:07.520Z,6.66
2019-01-06T00:32:07.517Z,6.66
2019-01-06T00:33:07.514Z,6.67
2019-01-06T00:34:07.495Z,6.71
2019-01-06T00:35:07.501Z,6.67
2019-01-06T00:36:07.469Z,6.66
2019-01-06T00:37:07.459Z,6.69
2019-01-06T00:38:07.448Z,6.64
2019-01-06T00:39:07.438Z,6.70
2019-01-06T00:40:07.425Z,6.69
2019-01-06T00:41:07.442Z,6.66
2019-01-06T00:42:07.404Z,6.62
2019-01-06T00:43:07.389Z,6.69
2019-01-06T00:44:07.385Z,6.67
2019-01-06T00:45:07.372Z,6.73
2019-01-06T00:46:07.380Z,6.69
2019-01-06T00:47:07.358Z,6.67
2019-01-06T00:48:07.338Z,6.70
2019-01-06T00:49:07.329Z,6.64
2019-01-06T00:50:07.323Z,6.66
2019-01-06T00:51:07.314Z,6.66
2019-01-06T00:52:07.315Z,6.70
2019-01-06T00:53:07.312Z,6.64
2019-01-06T00:54:07.291Z,6.67
2019-01-06T00:55:07.263Z,6.67
2019-01-06T00:56:07.248Z,6.71
2019-01-06T00:57:07.247Z,6.62
2019-01-06T00:58:07.226Z,6.70
2019-01-06T00:59:07.212Z,6.64
2019-01-06T01:00:07.246Z,6.69
2019-01-06T01:01:07.206Z,6.70
2019-01-06T01:02:07.206Z,6.69
2019-01-06T01:03:07.169Z,6.64
2019-01-06T01:04:07.161Z,6.69
2019-01-06T01:05:07.153Z,6.64
2019-01-06T01:06:07.138Z,6.64
2019-01-06T01:07:07.159Z,6.62
2019-01-06T01:08:07.111Z,6.69
2019-01-06T01:09:07.107Z,6.70
2019-01-06T01:10:07.096Z,6.71
2019-01-06T01:11:07.082Z,6.70
2019-01-06T01:12:07.068Z,6.69
2019-01-06T01:13:07.073Z,6.70
2019-01-06T01:14:07.048Z,6.71
2019-01-06T01:15:07.035Z,6.73
2019-01-06T01:16:07.052Z,6.66
2019-01-06T01:17:07.012Z,6.70
2019-01-06T01:18:07.024Z,6.70
2019-01-06T01:19:07.009Z,6.64
2019-01-06T01:20:06.987Z,6.64
2019-01-06T01:21:06.970Z,6.70
2019-01-06T01:22:06.985Z,6.66
2019-01-06T01:23:06.974Z,6.62
2019-01-06T01:24:06.939Z,6.69
2019-01-06T01:25:06.921Z,6.62
2019-01-06T01:26:06.914Z,6.74
2019-01-06T01:27:06.904Z,6.59
2019-01-06T01:28:06.910Z,6.67
2019-01-06T01:29:06.880Z,6.66
2019-01-06T01:30:06.866Z,6.73
2019-01-06T01:31:06.859Z,6.66
2019-01-06T01:32:06.850Z,6.71
2019-01-06T01:33:06.855Z,6.73
2019-01-06T01:34:06.839Z,6.69
2019-01-06T01:35:06.817Z,6.66
2019-01-06T01:36:06.805Z,6.64
2019-01-06T01:37:06.791Z,6.67
2019-01-06T01:38:06.800Z,6.70
2019-01-06T01:39:06.800Z,6.64
2019-01-06T01:40:06.758Z,6.62
2019-01-06T01:41:06.756Z,6.67
2019-01-06T01:42:06.735Z,6.70
2019-01-06T01:43:07.419Z,6.67
2019-01-06T01:44:06.746Z,6.66
2019-01-06T01:45:06.706Z,6.64
2019-01-06T01:46:06.698Z,6.59
2019-01-06T01:47:06.690Z,6.66
2019-01-06T01:48:06.674Z,6.64
2019-01-06T01:49:06.701Z,6.61
2019-01-06T01:50:06.657Z,6.64
2019-01-06T01:51:06.640Z,6.59
2019-01-06T01:52:06.629Z,6.70
2019-01-06T01:53:06.612Z,6.70
2019-01-06T01:54:06.624Z,6.69
2019-01-06T01:55:06.610Z,6.69
2019-01-06T01:56:06.585Z,6.70
2019-01-06T01:57:06.572Z,6.71
2019-01-06T01:58:06.556Z,6.77
2019-01-06T01:59:06.554Z,6.84
2019-01-06T02:00:06.554Z,6.84
2019-01-06T02:01:06.538Z,6.73
2019-01-06T02:02:06.526Z,6.76
2019-01-06T02:03:06.536Z,6.74
2019-01-06T02:04:06.535Z,6.79
2019-01-06T02:05:06.509Z,6.73
2019-01-06T02:06:06.471Z,6.79
2019-01-06T02:07:06.475Z,6.79
2019-01-06T02:08:06.453Z,6.76
2019-01-06T02:09:06.439Z,6.79
2019-01-06T02:10:06.441Z,6.80
2019-01-06T02:11:06.429Z,6.80
2019-01-06T02:12:06.408Z,6.80
2019-01-06T02:13:06.395Z,6.84
2019-01-06T02:14:06.386Z,6.79
2019-01-06T02:15:06.398Z,6.74
2019-01-06T02:16:06.356Z,6.79
2019-01-06T02:17:06.354Z,6.77
2019-01-06T02:18:06.338Z,6.76
2019-01-06T02:19:06.337Z,6.74
2019-01-06T02:20:06.335Z,6.67
2019-01-06T02:21:06.325Z,6.70
2019-01-06T02:22:06.297Z,6.69
2019-01-06T02:23:06.280Z,6.67
2019-01-06T02:24:06.282Z,6.76
2019-01-06T02:25:06.261Z,6.70
2019-01-06T02:26:06.274Z,6.74
2019-01-06T02:27:06.235Z,6.69
2019-01-06T02:28:06.238Z,6.74
2019-01-06T02:29:06.214Z,6.64
2019-01-06T02:30:06.212Z,6.70
2019-01-06T02:31:06.215Z,6.70
2019-01-06T02:32:06.187Z,6.70
2019-01-06T02:33:06.174Z,6.73
2019-01-06T02:34:06.168Z,6.71
2019-01-06T02:35:06.149Z,6.64
2019-01-06T02:36:06.159Z,6.67
2019-01-06T02:37:06.128Z,6.71
2019-01-06T02:38:06.127Z,6.67
2019-01-06T02:39:06.105Z,6.66
2019-01-06T02:40:06.098Z,6.70
2019-01-06T02:41:06.099Z,6.64
2019-01-06T02:42:06.091Z,6.66
2019-01-06T02:43:06.198Z,6.58
2019-01-06T02:44:06.047Z,6.64
2019-01-06T02:45:06.042Z,6.55
2019-01-06T02:46:06.066Z,6.69
2019-01-06T02:47:06.017Z,6.70
2019-01-06T02:48:06.003Z,6.69
2019-01-06T02:49:05.993Z,6.54
2019-01-06T02:50:06.104Z,6.64
2019-01-06T02:51:05.977Z,6.59
2019-01-06T02:52:05.997Z,6.66
2019-01-06T02:53:05.950Z,6.62
2019-01-06T02:54:05.952Z,6.59
2019-01-06T02:55:05.935Z,6.55
2019-01-06T02:56:05.916Z,6.61
2019-01-06T02:57:05.906Z,6.58
2019-01-06T02:58:05.931Z,6.64
2019-01-06T02:59:05.889Z,6.69
2019-01-06T03:00:05.882Z,6.61
2019-01-06T03:01:05.863Z,6.54
2019-01-06T03:02:05.869Z,6.56
2019-01-06T03:03:05.867Z,6.55
2019-01-06T03:04:05.836Z,6.64
2019-01-06T03:05:05.820Z,6.59
2019-01-06T03:06:05.817Z,6.58
2019-01-06T03:07:05.796Z,6.66
2019-01-06T03:08:05.804Z,6.64
2019-01-06T03:09:05.773Z,6.67
2019-01-06T03:10:05.761Z,6.55
2019-01-06T03:11:05.753Z,6.61
2019-01-06T03:12:05.740Z,6.51
2019-01-06T03:13:05.749Z,6.69
2019-01-06T03:14:05.729Z,6.64
2019-01-06T03:15:05.720Z,6.69
2019-01-06T03:16:05.699Z,6.73
2019-01-06T03:17:05.695Z,6.64
2019-01-06T03:18:05.708Z,6.66
2019-01-06T03:19:05.678Z,6.71
2019-01-06T03:20:05.658Z,6.76
2019-01-06T03:21:05.647Z,6.74
2019-01-06T03:22:05.639Z,6.67
2019-01-06T03:23:05.654Z,6.64
2019-01-06T03:24:05.625Z,6.64
2019-01-06T03:25:05.602Z,6.70
2019-01-06T03:26:05.590Z,6.69
2019-01-06T03:27:05.576Z,6.64
2019-01-06T03:28:05.566Z,6.66
2019-01-06T03:29:05.580Z,6.64
2019-01-06T03:30:05.561Z,6.61
2019-01-06T03:31:05.556Z,6.62
2019-01-06T03:32:05.532Z,6.58
2019-01-06T03:33:05.513Z,6.69
2019-01-06T03:34:05.533Z,6.69
2019-01-06T03:35:05.493Z,6.61
2019-01-06T03:36:05.539Z,6.66
2019-01-06T03:37:05.468Z,6.61
2019-01-06T03:38:05.452Z,6.56
2019-01-06T03:39:05.465Z,6.58
2019-01-06T03:40:05.435Z,6.61
2019-01-06T03:41:05.427Z,6.51
2019-01-06T03:42:05.414Z,6.59
2019-01-06T03:43:05.414Z,6.49
2019-01-06T03:44:05.388Z,6.49
2019-01-06T03:45:05.396Z,6.52
2019-01-06T03:46:05.365Z,6.58
2019-01-06T03:47:05.352Z,6.52
2019-01-06T03:48:05.341Z,6.56
2019-01-06T03:49:05.335Z,6.58
2019-01-06T03:50:05.337Z,6.56
2019-01-06T03:51:05.314Z,6.59
2019-01-06T03:52:05.295Z,6.48
2019-01-06T03:53:05.284Z,6.44
2019-01-06T03:54:05.280Z,6.43
2019-01-06T03:55:05.282Z,6.38
2019-01-06T03:56:05.256Z,6.41
2019-01-06T03:57:05.251Z,6.38
2019-01-06T03:58:05.273Z,6.40
2019-01-06T03:59:05.228Z,6.36
2019-01-06T04:00:05.231Z,6.41
2019-01-06T04:01:05.201Z,6.43
2019-01-06T04:02:05.186Z,6.37
2019-01-06T04:03:05.179Z,6.40
2019-01-06T04:04:05.175Z,6.37
2019-01-06T04:05:05.183Z,6.41
2019-01-06T04:06:05.171Z,6.37
2019-01-06T04:07:05.134Z,6.41
2019-01-06T04:08:05.124Z,6.40
2019-01-06T04:09:05.120Z,6.41
2019-01-06T04:10:05.124Z,6.38
2019-01-06T04:11:05.114Z,6.37
2019-01-06T04:12:05.078Z,6.44
2019-01-06T04:13:05.065Z,6.43
2019-01-06T04:14:05.057Z,6.36
2019-01-06T04:15:05.062Z,6.41
2019-01-06T04:16:05.050Z,6.41
2019-01-06T04:17:05.023Z,6.38
2019-01-06T04:18:05.017Z,6.41
2019-01-06T04:19:05.001Z,6.43
2019-01-06T04:20:05.003Z,6.38
2019-01-06T04:21:05.007Z,6.40
2019-01-06T04:22:04.984Z,6.43
2019-01-06T04:23:04.966Z,6.43
2019-01-06T04:24:04.948Z,6.41
2019-01-06T04:25:04.970Z,6.37
2019-01-06T04:26:04.947Z,6.34
2019-01-06T04:27:04.914Z,6.51
2019-01-06T04:28:05.012Z,6.43
2019-01-06T04:29:04.902Z,6.37
2019-01-06T04:30:04.952Z,6.44
2019-01-06T04:31:04.908Z,6.33
2019-01-06T04:32:04.874Z,6.41
2019-01-06T04:33:04.862Z,6.36
2019-01-06T04:34:04.837Z,6.37
2019-01-06T04:35:04.826Z,6.37
2019-01-06T04:36:04.833Z,6.36
2019-01-06T04:37:04.806Z,6.48
2019-01-06T04:38:04.797Z,6.33
2019-01-06T04:39:04.783Z,6.40
2019-01-06T04:40:04.768Z,6.38
2019-01-06T04:41:04.776Z,6.38
2019-01-06T04:42:04.783Z,6.37
2019-01-06T04:43:04.738Z,6.38
2019-01-06T04:44:04.735Z,6.41
2019-01-06T04:45:04.730Z,6.41
2019-01-06T04:46:04.707Z,6.43
2019-01-06T04:47:04.729Z,6.43
2019-01-06T04:48:04.696Z,6.44
2019-01-06T04:49:04.672Z,6.40
2019-01-06T04:50:04.659Z,6.38
2019-01-06T04:51:04.657Z,6.36
2019-01-06T04:52:04.663Z,6.44
2019-01-06T04:53:04.624Z,6.38
2019-01-06T04:54:04.615Z,6.34
2019-01-06T04:55:04.609Z,6.41
2019-01-06T04:56:04.592Z,6.40
2019-01-06T04:57:04.611Z,6.41
2019-01-06T04:58:04.614Z,6.41
2019-01-06T04:59:04.556Z,6.37
2019-01-06T05:00:04.549Z,6.31
2019-01-06T05:01:04.549Z,6.40
2019-01-06T05:02:04.535Z,6.41
2019-01-06T05:03:04.537Z,6.40
2019-01-06T05:04:04.525Z,6.40
2019-01-06T05:05:04.494Z,6.37
2019-01-06T05:06:04.481Z,6.37
2019-01-06T05:07:04.472Z,6.37
2019-01-06T05:08:04.480Z,6.40
2019-01-06T05:09:04.449Z,6.38
2019-01-06T05:10:04.439Z,6.33
2019-01-06T05:11:04.428Z,6.30
2019-01-06T05:12:04.416Z,6.31
2019-01-06T05:13:04.438Z,6.31
2019-01-06T05:14:04.419Z,6.33
2019-01-06T05:15:04.380Z,6.28
2019-01-06T05:16:04.373Z,6.15
2019-01-06T05:17:04.375Z,6.28
2019-01-06T05:18:04.368Z,6.18
2019-01-06T05:19:04.358Z,6.15
2019-01-06T05:20:04.348Z,6.18
2019-01-06T05:21:04.364Z,6.21
2019-01-06T05:22:04.320Z,6.14
2019-01-06T05:23:04.327Z,6.17
2019-01-06T05:24:04.296Z,6.22
2019-01-06T05:25:04.285Z,6.25
2019-01-06T05:26:04.289Z,6.19
2019-01-06T05:27:04.272Z,6.19
2019-01-06T05:28:04.247Z,6.19
2019-01-06T05:29:04.258Z,6.19
2019-01-06T05:30:04.218Z,6.27
2019-01-06T05:31:04.233Z,6.18
2019-01-06T05:32:04.193Z,6.19
2019-01-06T05:33:04.214Z,6.17
2019-01-06T05:34:04.215Z,6.18
2019-01-06T05:35:04.167Z,6.12
2019-01-06T05:36:04.183Z,6.22
2019-01-06T05:37:04.136Z,6.21
2019-01-06T05:38:04.135Z,6.15
2019-01-06T05:39:04.144Z,6.18
2019-01-06T05:40:04.113Z,6.14
2019-01-06T05:41:04.133Z,6.14
2019-01-06T05:42:04.083Z,6.14
2019-01-06T05:43:04.075Z,6.14
2019-01-06T05:44:04.063Z,6.12
2019-01-06T05:45:04.052Z,6.17
2019-01-06T05:46:04.043Z,6.19
2019-01-06T05:47:04.049Z,6.17
2019-01-06T05:48:04.016Z,6.18
2019-01-06T05:49:04.022Z,6.21
2019-01-06T05:50:03.994Z,6.25
2019-01-06T05:51:03.991Z,6.17
2019-01-06T05:52:03.992Z,6.18
2019-01-06T05:53:03.966Z,6.21
2019-01-06T05:54:03.985Z,6.17
2019-01-06T05:55:03.945Z,6.19
2019-01-06T05:56:03.932Z,6.21
2019-01-06T05:57:03.941Z,6.19
2019-01-06T05:58:03.914Z,6.18
2019-01-06T05:59:03.901Z,6.19
2019-01-06T06:00:03.904Z,6.17
2019-01-06T06:01:03.880Z,6.21
2019-01-06T06:02:03.864Z,6.21
2019-01-06T06:03:03.870Z,6.31
2019-01-06T06:04:03.852Z,6.21
2019-01-06T06:05:03.850Z,6.15
2019-01-06T06:06:03.819Z,6.15
2019-01-06T06:07:11.073Z,6.21
2019-01-06T06:08:04.802Z,6.18
2019-01-06T06:09:03.783Z,6.22
2019-01-06T06:10:03.792Z,6.19
2019-01-06T06:11:03.768Z,6.18
2019-01-06T06:12:03.772Z,6.25
2019-01-06T06:13:03.743Z,6.21
2019-01-06T06:14:03.731Z,6.17
2019-01-06T06:15:03.732Z,6.17
2019-01-06T06:16:03.719Z,6.19
2019-01-06T06:17:03.723Z,6.17
2019-01-06T06:18:05.468Z,6.19
2019-01-06T06:19:03.708Z,6.21
2019-01-06T06:20:03.694Z,6.14
2019-01-06T06:21:03.653Z,6.21
2019-01-06T06:22:03.645Z,6.19
2019-01-06T06:23:03.645Z,6.19
2019-01-06T06:24:03.619Z,6.25
2019-01-06T06:25:03.625Z,6.22
2019-01-06T06:26:03.608Z,6.18
2019-01-06T06:27:03.604Z,6.15
2019-01-06T06:28:03.581Z,6.12
2019-01-06T06:29:03.571Z,6.14
2019-01-06T06:30:03.576Z,6.17
2019-01-06T06:31:03.571Z,6.18
2019-01-06T06:32:03.540Z,6.15
2019-01-06T06:33:03.529Z,6.18
2019-01-06T06:34:03.523Z,6.36
2019-01-06T06:35:03.499Z,6.34
2019-01-06T06:36:03.494Z,6.19
2019-01-06T06:37:03.514Z,6.28
2019-01-06T06:38:03.504Z,6.15
2019-01-06T06:39:03.469Z,6.18
2019-01-06T06:40:03.444Z,6.18
2019-01-06T06:41:03.465Z,6.15
2019-01-06T06:42:03.433Z,6.28
2019-01-06T06:43:03.434Z,6.22
2019-01-06T06:44:03.404Z,6.17
2019-01-06T06:45:03.389Z,6.27
2019-01-06T06:46:03.398Z,6.28
2019-01-06T06:47:03.388Z,6.27
2019-01-06T06:48:03.374Z,6.33
2019-01-06T06:49:03.356Z,6.28
2019-01-06T06:50:03.336Z,6.28
2019-01-06T06:51:03.348Z,6.30
2019-01-06T06:52:03.329Z,6.34
2019-01-06T06:53:03.302Z,6.36
2019-01-06T06:54:03.292Z,6.38
2019-01-06T06:55:03.297Z,6.41
2019-01-06T06:56:03.268Z,6.38
2019-01-06T06:57:03.275Z,6.40
2019-01-06T06:58:03.246Z,6.40
2019-01-06T06:59:03.246Z,6.38
2019-01-06T07:00:03.233Z,6.38
2019-01-06T07:01:03.219Z,6.38
2019-01-06T07:02:03.222Z,6.37
2019-01-06T07:03:03.229Z,6.41
2019-01-06T07:04:03.195Z,6.38
2019-01-06T07:05:03.174Z,6.36
2019-01-06T07:06:03.170Z,6.43
2019-01-06T07:07:03.187Z,6.38
2019-01-06T07:08:03.135Z,6.43
2019-01-06T07:09:03.131Z,6.41
2019-01-06T07:10:03.117Z,6.40
2019-01-06T07:11:03.110Z,6.37
2019-01-06T07:12:03.108Z,6.46
2019-01-06T07:13:03.105Z,6.43
2019-01-06T07:14:03.066Z,6.40
2019-01-06T07:15:03.064Z,6.41
2019-01-06T07:16:03.065Z,6.40
2019-01-06T07:17:03.038Z,6.43
2019-01-06T07:18:03.046Z,6.38
2019-01-06T07:19:03.013Z,6.38
2019-01-06T07:20:03.017Z,6.40
2019-01-06T07:21:02.996Z,6.41
2019-01-06T07:22:02.980Z,6.40
2019-01-06T07:23:02.994Z,6.41
2019-01-06T07:24:02.969Z,6.37
2019-01-06T07:25:02.969Z,6.41
2019-01-06T07:26:02.938Z,6.37
2019-01-06T07:27:03.003Z,6.36
2019-01-06T07:28:02.936Z,6.44
2019-01-06T07:29:02.913Z,6.34
2019-01-06T07:30:02.904Z,6.43
2019-01-06T07:31:02.886Z,6.33
2019-01-06T07:32:02.887Z,6.40
2019-01-06T07:33:02.880Z,6.38
2019-01-06T07:34:02.850Z,6.40
2019-01-06T07:35:02.846Z,6.41
2019-01-06T07:36:02.826Z,6.37
2019-01-06T07:37:02.814Z,6.41
2019-01-06T07:38:02.811Z,6.40
2019-01-06T07:39:02.814Z,6.37
2019-01-06T07:40:02.799Z,6.37
2019-01-06T07:41:02.782Z,6.43
2019-01-06T07:42:02.765Z,6.40
2019-01-06T07:43:02.749Z,6.36
2019-01-06T07:44:02.752Z,6.40
2019-01-06T07:45:02.744Z,6.41
2019-01-06T07:46:02.802Z,6.38
2019-01-06T07:47:02.717Z,6.38
2019-01-06T07:48:02.698Z,6.40
2019-01-06T07:49:02.703Z,6.33
2019-01-06T07:50:02.677Z,6.36
2019-01-06T07:51:02.669Z,6.33
2019-01-06T07:52:02.681Z,6.33
2019-01-06T07:53:02.646Z,6.36
2019-01-06T07:54:02.734Z,6.41
2019-01-06T07:55:02.617Z,6.40
2019-01-06T07:56:02.621Z,6.37
2019-01-06T07:57:02.620Z,6.40
2019-01-06T07:58:02.585Z,6.34
2019-01-06T07:59:02.603Z,6.40
2019-01-06T08:00:02.571Z,6.43
2019-01-06T08:01:02.551Z,6.38
2019-01-06T08:02:02.540Z,6.37
2019-01-06T08:03:02.562Z,6.38
2019-01-06T08:04:02.521Z,6.38
2019-01-06T08:05:02.536Z,6.38
2019-01-06T08:06:02.500Z,6.44
2019-01-06T08:07:02.487Z,6.46
2019-01-06T08:08:02.472Z,6.48
2019-01-06T08:09:02.461Z,6.52
2019-01-06T08:10:02.497Z,6.44
2019-01-06T08:11:02.459Z,6.48
2019-01-06T08:12:02.435Z,6.49
2019-01-06T08:13:02.422Z,6.44
2019-01-06T08:14:02.411Z,6.43
2019-01-06T08:15:02.444Z,6.43
2019-01-06T08:16:02.390Z,6.43
2019-01-06T08:17:02.397Z,6.37
2019-01-06T08:18:02.383Z,6.48
2019-01-06T08:19:02.351Z,6.48
2019-01-06T08:20:02.350Z,6.44
2019-01-06T08:21:02.359Z,6.48
2019-01-06T08:22:02.348Z,6.56
2019-01-06T08:23:02.321Z,6.55
2019-01-06T08:24:02.304Z,6.55
2019-01-06T08:25:02.283Z,6.55
2019-01-06T08:26:02.289Z,6.51
2019-01-06T08:27:02.268Z,6.49
2019-01-06T08:28:02.293Z,6.54
2019-01-06T08:29:02.244Z,6.54
2019-01-06T08:30:02.244Z,6.52
2019-01-06T08:31:02.249Z,6.54
2019-01-06T08:32:02.227Z,6.58
2019-01-06T08:33:02.213Z,6.64
2019-01-06T08:34:02.201Z,6.62
2019-01-06T08:35:02.206Z,6.56
2019-01-06T08:36:02.250Z,6.64
2019-01-06T08:37:02.163Z,6.69
2019-01-06T08:38:02.216Z,6.62
2019-01-06T08:39:02.126Z,6.66
2019-01-06T08:40:02.147Z,6.74
2019-01-06T08:41:02.107Z,6.71
2019-01-06T08:42:02.117Z,6.69
2019-01-06T08:43:02.094Z,6.59
2019-01-06T08:44:02.075Z,6.64
2019-01-06T08:45:02.072Z,6.70
2019-01-06T08:46:02.070Z,6.66
2019-01-06T08:47:02.073Z,6.66
2019-01-06T08:48:02.054Z,6.64
2019-01-06T08:49:02.022Z,6.70
2019-01-06T08:50:02.036Z,6.62
2019-01-06T08:51:01.999Z,6.74
2019-01-06T08:52:02.000Z,6.69
2019-01-06T08:53:01.986Z,6.70
2019-01-06T08:54:01.968Z,6.66
2019-01-06T08:55:01.954Z,6.70
2019-01-06T08:56:01.987Z,6.69
2019-01-06T08:57:01.951Z,6.74
2019-01-06T08:58:01.922Z,6.77
2019-01-06T08:59:01.913Z,6.66
2019-01-06T09:00:01.894Z,6.74
2019-01-06T09:01:01.883Z,6.67
2019-01-06T09:02:01.890Z,6.84
2019-01-06T09:03:01.909Z,6.69
2019-01-06T09:04:01.856Z,6.79
2019-01-06T09:05:01.846Z,6.73
2019-01-06T09:06:01.840Z,6.80
2019-01-06T09:07:01.837Z,6.74
2019-01-06T09:08:01.814Z,6.76
2019-01-06T09:09:01.801Z,6.76
2019-01-06T09:10:01.785Z,6.81
2019-01-06T09:11:01.789Z,6.77
2019-01-06T09:12:01.797Z,6.85
2019-01-06T09:13:01.752Z,6.91
2019-01-06T09:14:01.738Z,6.88
2019-01-06T09:15:01.755Z,6.88
2019-01-06T09:16:01.728Z,6.84
2019-01-06T09:17:01.724Z,6.84
2019-01-06T09:18:01.745Z,6.84
2019-01-06T09:19:01.696Z,6.85
2019-01-06T09:20:01.682Z,6.87
2019-01-06T09:21:01.668Z,6.81
2019-01-06T09:22:01.652Z,6.87
2019-01-06T09:23:01.690Z,6.89
2019-01-06T09:24:01.631Z,6.89
2019-01-06T09:25:01.625Z,6.89
2019-01-06T09:26:01.618Z,6.88
2019-01-06T09:27:01.596Z,6.84
2019-01-06T09:28:01.643Z,6.84
2019-01-06T09:29:01.591Z,6.84
2019-01-06T09:30:01.592Z,6.85
2019-01-06T09:31:01.566Z,6.87
2019-01-06T09:32:02.439Z,6.91
2019-01-06T09:33:01.556Z,6.91
2019-01-06T09:34:01.541Z,6.95
2019-01-06T09:35:01.518Z,6.88
2019-01-06T09:36:01.526Z,7.03
2019-01-06T09:37:01.491Z,7.02
2019-01-06T09:38:01.483Z,6.97
2019-01-06T09:39:01.510Z,7.06
2019-01-06T09:40:01.582Z,6.99
2019-01-06T09:41:01.443Z,7.20
2019-01-06T09:42:01.444Z,7.12
2019-01-06T09:43:01.434Z,7.06
2019-01-06T09:44:01.419Z,7.16
2019-01-06T09:45:01.423Z,7.07
2019-01-06T09:46:01.411Z,7.20
2019-01-06T09:47:01.431Z,7.12
2019-01-06T09:48:01.368Z,7.20
2019-01-06T09:49:01.353Z,7.15
2019-01-06T09:50:01.381Z,7.21
2019-01-06T09:51:01.345Z,7.15
2019-01-06T09:52:01.329Z,7.17
2019-01-06T09:53:01.355Z,7.20
2019-01-06T09:54:01.300Z,7.24
2019-01-06T09:55:01.334Z,7.20
2019-01-06T09:56:01.282Z,7.21
2019-01-06T09:57:01.269Z,7.25
2019-01-06T09:58:01.293Z,7.23
2019-01-06T09:59:01.298Z,7.28
2019-01-06T10:00:01.286Z,7.24
2019-01-06T10:01:01.228Z,7.27
2019-01-06T10:02:01.217Z,7.25
2019-01-06T10:03:01.201Z,7.25
2019-01-06T10:04:01.187Z,7.16
2019-01-06T10:05:01.242Z,7.31
2019-01-06T10:06:01.193Z,7.28
2019-01-06T10:07:01.155Z,7.37
2019-01-06T10:08:01.185Z,7.40
2019-01-06T10:09:01.140Z,7.43
2019-01-06T10:10:01.124Z,7.40
2019-01-06T10:11:01.142Z,7.40
2019-01-06T10:12:01.101Z,7.40
2019-01-06T10:13:01.093Z,7.50
2019-01-06T10:14:02.668Z,7.57
2019-01-06T10:15:01.118Z,7.52
2019-01-06T10:16:01.069Z,7.57
2019-01-06T10:17:01.061Z,7.58
2019-01-06T10:18:01.036Z,7.57
2019-01-06T10:19:01.030Z,7.63
2019-01-06T10:20:01.034Z,7.64
2019-01-06T10:21:01.026Z,7.68
2019-01-06T10:22:01.013Z,7.71
2019-01-06T10:23:01.016Z,7.63
2019-01-06T10:24:00.973Z,7.64
2019-01-06T10:25:00.971Z,7.61
2019-01-06T10:26:00.988Z,7.64
2019-01-06T10:27:00.933Z,7.67
2019-01-06T10:28:00.947Z,7.67
2019-01-06T10:29:00.911Z,7.64
2019-01-06T10:30:00.925Z,7.67
2019-01-06T10:31:00.918Z,7.64
2019-01-06T10:32:00.926Z,7.63
2019-01-06T10:33:00.887Z,7.68
2019-01-06T10:34:00.874Z,7.68
2019-01-06T10:35:00.863Z,7.63
2019-01-06T10:36:00.847Z,7.71
2019-01-06T10:37:00.855Z,7.61
2019-01-06T10:38:00.848Z,7.63
2019-01-06T10:39:00.816Z,7.71
2019-01-06T10:40:00.831Z,7.71
2019-01-06T10:41:00.798Z,7.64
2019-01-06T10:42:00.815Z,7.74
2019-01-06T10:43:00.768Z,7.79
2019-01-06T10:44:00.751Z,7.64
2019-01-06T10:45:00.753Z,7.75
2019-01-06T10:46:00.735Z,7.75
2019-01-06T10:47:00.735Z,7.74
2019-01-06T10:48:00.728Z,7.87
2019-01-06T10:49:00.708Z,7.86
2019-01-06T10:50:00.678Z,7.87
2019-01-06T10:51:00.683Z,7.87
2019-01-06T10:52:00.664Z,7.92
2019-01-06T10:53:00.678Z,7.90
2019-01-06T10:54:01.031Z,7.92
2019-01-06T10:55:00.650Z,7.95
2019-01-06T10:56:00.616Z,8.00
2019-01-06T10:57:00.610Z,8.08
2019-01-06T10:58:00.627Z,7.95
2019-01-06T10:59:00.616Z,8.00
2019-01-06T11:00:00.569Z,7.95
2019-01-06T11:01:00.558Z,8.12
2019-01-06T11:02:00.557Z,8.05
2019-01-06T11:03:00.560Z,8.15
2019-01-06T11:04:00.556Z,8.07
2019-01-06T11:05:00.517Z,8.10
2019-01-06T11:06:00.517Z,8.12
2019-01-06T11:07:00.499Z,8.19
2019-01-06T11:08:00.538Z,8.25
2019-01-06T11:09:00.482Z,8.28
2019-01-06T11:10:00.480Z,8.33
2019-01-06T11:11:00.449Z,8.37
2019-01-06T11:12:00.459Z,8.33
2019-01-06T11:13:00.431Z,8.37
2019-01-06T11:14:00.451Z,8.48
2019-01-06T11:15:00.398Z,8.50
2019-01-06T11:16:00.406Z,8.56
2019-01-06T11:17:00.383Z,8.58
2019-01-06T11:18:00.393Z,8.61
2019-01-06T11:19:00.386Z,8.59
2019-01-06T11:20:00.380Z,8.70
2019-01-06T11:21:00.341Z,8.65
2019-01-06T11:22:00.323Z,8.76
2019-01-06T11:23:00.318Z,8.73
2019-01-06T11:24:00.334Z,8.79
2019-01-06T11:25:00.309Z,8.81
2019-01-06T11:26:00.291Z,8.86
2019-01-06T11:27:00.264Z,8.83
2019-01-06T11:28:00.268Z,8.87
2019-01-06T11:29:00.267Z,8.83
2019-01-06T11:30:00.291Z,8.80
2019-01-06T11:31:00.224Z,8.80
2019-01-06T11:32:00.219Z,8.86
2019-01-06T11:33:00.274Z,8.84
2019-01-06T11:34:00.195Z,8.83
2019-01-06T11:35:00.215Z,8.86
2019-01-06T11:36:00.184Z,8.83
2019-01-06T11:37:00.156Z,8.86
2019-01-06T11:38:00.148Z,8.89
2019-01-06T11:39:00.782Z,8.80
2019-01-06T11:40:00.294Z,8.80
2019-01-06T11:41:07.766Z,8.81
2019-01-06T11:42:01.097Z,8.77
2019-01-06T11:43:00.093Z,8.74
2019-01-06T11:44:00.094Z,8.74
2019-01-06T11:45:00.131Z,8.76
2019-01-06T11:46:00.083Z,8.73
2019-01-06T11:47:00.054Z,8.77
2019-01-06T11:48:00.036Z,8.70
2019-01-06T11:49:00.021Z,8.65
2019-01-06T11:50:00.017Z,8.68
2019-01-06T11:51:00.023Z,8.66
2019-01-06T11:51:59.988Z,8.62
2019-01-06T11:52:59.974Z,8.66
2019-01-06T11:53:59.964Z,8.66
2019-01-06T11:54:59.964Z,8.63
2019-01-06T11:55:59.987Z,8.59
2019-01-06T11:56:59.929Z,8.66
2019-01-06T11:57:59.925Z,8.65
2019-01-06T11:58:59.910Z,8.61
2019-01-06T11:59:59.894Z,8.66
2019-01-06T12:00:59.890Z,8.59
2019-01-06T12:01:59.901Z,8.65
2019-01-06T12:02:59.881Z,8.66
2019-01-06T12:03:59.866Z,8.65
2019-01-06T12:04:59.865Z,8.56
2019-01-06T12:05:59.845Z,8.56
2019-01-06T12:06:59.849Z,8.56
2019-01-06T12:07:59.809Z,8.65
2019-01-06T12:08:59.813Z,8.62
2019-01-06T12:09:59.791Z,8.63
2019-01-06T12:10:59.773Z,8.68
2019-01-06T12:11:59.801Z,8.59
2019-01-06T12:12:59.756Z,8.70
2019-01-06T12:13:59.743Z,8.62
2019-01-06T12:14:59.733Z,8.65
2019-01-06T12:15:59.724Z,8.63
2019-01-06T12:16:59.735Z,8.76
2019-01-06T12:17:59.701Z,8.66
2019-01-06T12:18:59.688Z,8.71
2019-01-06T12:19:59.687Z,8.76
2019-01-06T12:20:59.670Z,8.74
2019-01-06T12:21:59.672Z,8.76
2019-01-06T12:22:59.672Z,8.73
2019-01-06T12:23:59.646Z,8.80
2019-01-06T12:24:59.618Z,8.80
2019-01-06T12:25:59.624Z,8.81
2019-01-06T12:26:59.607Z,8.79
2019-01-06T12:27:59.603Z,8.81
2019-01-06T12:28:59.591Z,8.92
2019-01-06T12:29:59.565Z,8.94
2019-01-06T12:30:59.552Z,8.84
2019-01-06T12:31:59.548Z,8.91
2019-01-06T12:32:59.563Z,8.87
2019-01-06T12:33:59.516Z,8.95
2019-01-06T12:34:59.512Z,8.81
2019-01-06T12:35:59.496Z,8.79
2019-01-06T12:36:59.497Z,8.84
2019-01-06T12:37:59.473Z,8.86
2019-01-06T12:38:59.483Z,8.86
2019-01-06T12:39:59.456Z,8.79
2019-01-06T12:40:59.435Z,8.74
2019-01-06T12:41:59.423Z,8.68
2019-01-06T12:42:59.421Z,8.76
2019-01-06T12:43:59.454Z,8.63
2019-01-06T12:44:59.398Z,8.66
2019-01-06T12:45:59.388Z,8.68
2019-01-06T12:46:59.380Z,8.76
2019-01-06T12:47:59.369Z,8.66
2019-01-06T12:48:59.354Z,8.71
2019-01-06T12:49:59.403Z,8.70
2019-01-06T12:50:59.331Z,8.66
2019-01-06T12:51:59.314Z,8.68
2019-01-06T12:52:59.312Z,8.61
2019-01-06T12:53:59.301Z,8.66
2019-01-06T12:54:59.301Z,8.68
2019-01-06T12:55:59.270Z,8.65
2019-01-06T12:56:59.266Z,8.58
2019-01-06T12:57:59.248Z,8.63
2019-01-06T12:58:59.245Z,8.65
2019-01-06T12:59:59.272Z,8.65
2019-01-06T13:00:59.228Z,8.63
2019-01-06T13:01:59.207Z,8.66
2019-01-06T13:02:59.195Z,8.61
2019-01-06T13:03:59.180Z,8.62
2019-01-06T13:04:59.216Z,8.68
2019-01-06T13:05:59.160Z,8.70
2019-01-06T13:06:59.159Z,8.71
2019-01-06T13:07:59.137Z,8.68
2019-01-06T13:08:59.128Z,8.68
2019-01-06T13:09:59.131Z,8.62
2019-01-06T13:10:59.135Z,8.59
2019-01-06T13:11:59.102Z,8.50
2019-01-06T13:12:59.084Z,8.63
2019-01-06T13:13:59.072Z,8.68
2019-01-06T13:14:59.070Z,8.61
2019-01-06T13:15:59.085Z,8.56
2019-01-06T13:16:59.043Z,8.58
2019-01-06T13:17:59.024Z,8.56